Latest Weather Observations for Georgetown Airport

IDQ60801

Issued at 3:02 pm EST Wednesday 25 May 2016 (issued every 30 minutes, with the page automatically refreshed every 10 minutes)

About weather observations | Map of weather stations | Latest weather observations for QLD | Other Formats
Station Details ID: 030124 Name: GEORGETOWN AIRPORT Lat: -18.30 Lon: 143.53 Height: 301.77 m
Data from the previous 72 hours. | See also: Recent months at Georgetown Airport
Date/Time
EST
Temp
°C
App
Temp
°C
Dew
Point
Rel
Hum
%
Delta-T
°C
Wind Press
QNH
hPa
Press
MSL
hPa
Rain
since 9 am
mm
Dir
 
Spd
km/h
Gust
km/h
Spd
kts
Gust
kts
25/03:00pm 30.3 30.3 16.3 42 8.8 ENE 11 19 6 10 1012.7 - 0.2
25/02:30pm 30.8 31.8 16.4 42 9.1 NW 6 11 3 6 1012.8 - 0.2
25/02:00pm 30.9 31.9 16.9 43 8.9 NW 7 11 4 6 1013.1 - 0.2
25/01:30pm 29.9 30.3 16.3 43 8.6 ESE 9 13 5 7 1013.7 - 0.2
25/01:00pm 29.7 30.6 16.5 45 8.3 ESE 7 13 4 7 1014.2 - 0.2
25/12:30pm 28.4 28.8 16.3 47 7.6 ESE 9 15 5 8 1015.2 - 0.2
25/12:00pm 27.8 27.8 15.1 46 7.8 E 9 15 5 8 1015.7 1014.4 0.2
25/11:30am 27.2 25.8 13.5 42 8.2 E 13 20 7 11 1016.0 - 0.2
25/11:00am 26.8 25.2 13.9 45 7.8 E 15 20 8 11 1016.4 - 0.2
25/10:30am 26.5 24.8 13.6 45 7.7 E 15 24 8 13 1016.6 - 0.0
25/10:00am 25.2 23.5 13.7 49 6.8 E 15 20 8 11 1016.8 - 0.0
25/09:30am 24.7 23.6 14.2 52 6.3 E 13 19 7 10 1016.7 - 0.0
25/09:00am 23.7 24.2 15.5 60 5.0 E 7 11 4 6 1016.7 - 0.0
25/08:30am 23.2 23.7 15.5 62 4.7 ESE 7 11 4 6 1016.4 - 0.0
25/08:00am 21.9 22.9 16.4 71 3.4 ESE 6 9 3 5 1016.1 - 0.0
25/07:30am 21.1 22.4 17.1 78 2.5 ENE 6 7 3 4 1016.0 - 0.0
25/07:00am 20.0 21.2 17.4 85 1.6 E 7 11 4 6 1015.5 - 0.0
25/06:30am 18.9 21.7 17.9 94 0.6 CALM 0 0 0 0 1015.2 - 0.0
25/06:00am 19.1 21.9 17.9 93 0.7 CALM 0 0 0 0 1015.0 1013.6 0.0
25/05:30am 19.6 22.4 17.9 90 1.1 CALM 0 0 0 0 1014.6 - 0.0
25/05:00am 20.1 22.8 17.7 86 1.5 CALM 0 0 0 0 1014.3 - 0.0
25/04:30am 20.9 22.3 17.3 80 2.2 S 6 7 3 4 1014.7 - 0.0
25/04:00am 21.8 22.6 17.4 76 2.7 NNE 9 13 5 7 1014.3 - 0.0
25/03:30am 22.1 23.6 17.5 75 2.9 E 6 7 3 4 1014.3 - 0.0
25/03:00am 22.7 23.5 17.4 72 3.3 ESE 9 11 5 6 1014.3 1013.0 0.0
25/02:30am 22.7 23.9 17.4 72 3.3 SE 7 13 4 7 1014.9 - 0.0
25/02:00am 23.0 22.8 17.7 72 3.3 ENE 15 26 8 14 1014.8 - 0.0
25/01:30am 23.0 23.2 17.7 72 3.3 ENE 13 17 7 9 1015.8 - 0.0
25/01:00am 23.4 23.9 17.4 69 3.8 E 11 17 6 9 1016.1 - 0.0
25/12:30am 23.7 23.8 17.4 68 4.0 E 13 17 7 9 1016.5 - 0.0
25/12:00am 23.7 24.7 17.7 69 3.8 ENE 9 13 5 7 1016.6 1015.2 0.0
 
Date/Time
EST
Temp
°C
App
Temp
°C
Dew
Point
Rel
Hum
%
Delta-T
°C
Wind Press
QNH
hPa
Press
MSL
hPa
Rain
since 9 am
mm
Dir
 
Spd
km/h
Gust
km/h
Spd
kts
Gust
kts
24/11:30pm 23.4 24.7 17.6 70 3.6 ESE 7 11 4 6 1016.8 - 0.0
24/11:00pm 23.0 24.0 17.7 72 3.3 ESE 9 13 5 7 1016.8 - 0.0
24/10:30pm 24.3 25.0 17.1 64 4.5 ESE 9 13 5 7 1016.9 - 0.0
24/10:00pm 24.3 24.9 16.8 63 4.7 E 9 15 5 8 1016.7 - 0.0
24/09:30pm 24.3 24.9 16.8 63 4.7 ESE 9 15 5 8 1016.5 - 0.0
24/09:00pm 24.6 24.7 16.6 61 5.0 ESE 11 17 6 9 1016.3 1015.0 0.0
24/08:30pm 24.6 25.2 16.8 62 4.9 ESE 9 15 5 8 1016.2 - 0.0
24/08:00pm 24.9 25.2 16.9 61 5.0 ESE 11 17 6 9 1016.1 - 0.0
24/07:30pm 24.7 25.5 17.2 63 4.7 ESE 9 15 5 8 1015.6 - 0.0
24/07:00pm 25.0 25.5 17.5 63 4.7 ESE 11 20 6 11 1015.2 - 0.0
24/06:30pm 25.4 25.6 17.6 62 4.9 ESE 13 19 7 10 1014.8 - 0.0
24/06:00pm 25.9 26.4 17.5 59 5.3 ESE 11 19 6 10 1014.5 1013.2 0.0
24/05:30pm 26.7 27.6 17.5 57 5.8 ESE 9 17 5 9 1014.7 - 0.0
24/05:00pm 27.2 27.3 17.4 55 6.2 E 13 19 7 10 1014.7 - 0.0
24/04:30pm 27.3 27.8 17.5 55 6.2 ESE 11 17 6 9 1014.3 - 0.0
24/04:00pm 27.4 27.3 17.8 55 6.1 ESE 15 20 8 11 1014.1 - 0.0
24/03:30pm 27.9 27.6 17.4 52 6.7 ENE 15 20 8 11 1014.3 - 0.0
24/03:00pm 28.2 28.8 17.7 53 6.7 E 11 17 6 9 1014.7 1013.3 0.0
24/02:30pm 27.9 28.1 17.7 53 6.5 E 13 17 7 9 1014.9 - 0.0
24/02:00pm 28.1 28.9 18.2 55 6.4 E 11 22 6 12 1015.0 - 0.0
24/01:30pm 27.3 27.1 17.5 55 6.2 E 15 24 8 13 1015.4 - 0.0
24/01:00pm 27.8 27.0 17.9 54 6.3 E 19 24 10 13 1015.5 - 0.0
24/12:30pm 26.8 26.0 18.1 59 5.6 ESE 19 30 10 16 1015.9 - 0.0
24/12:00pm 26.6 25.9 17.4 57 5.8 E 17 30 9 16 1016.2 1014.8 0.0
24/11:30am 26.2 25.2 17.6 59 5.5 E 19 24 10 13 1016.8 - 0.0
24/11:00am 25.8 24.6 17.4 59 5.3 E 20 28 11 15 1017.3 - 0.0
24/10:30am 25.3 24.3 17.5 62 4.9 E 19 28 10 15 1017.6 - 0.0
24/10:00am 25.4 24.8 17.6 62 4.9 E 17 24 9 13 1018.0 - 0.0
24/09:30am 25.7 25.5 17.6 61 5.1 E 15 22 8 12 1017.6 - 0.0
24/09:00am 23.8 22.6 17.1 66 4.2 E 19 32 10 17 1017.5 1016.0 0.2
24/08:30am 23.3 22.4 16.8 67 4.0 E 17 28 9 15 1016.9 - 0.2
24/08:00am 23.1 23.0 16.9 68 3.9 E 13 20 7 11 1016.8 - 0.2
24/07:30am 22.9 22.8 16.9 69 3.7 E 13 20 7 11 1016.2 - 0.2
24/07:00am 22.7 21.8 16.9 70 3.6 ESE 17 24 9 13 1015.9 - 0.2
24/06:30am 22.7 21.4 16.9 70 3.6 ESE 19 26 10 14 1015.7 - 0.2
24/06:00am 22.5 22.5 17.2 72 3.3 ESE 13 20 7 11 1015.4 1014.0 0.2
24/05:30am 22.4 22.5 17.5 74 3.1 ESE 13 22 7 12 1015.2 - 0.2
24/05:00am 22.4 22.5 17.5 74 3.1 ESE 13 20 7 11 1014.9 - 0.2
24/04:30am 22.4 22.3 17.8 75 2.9 E 15 24 8 13 1014.9 - 0.2
24/04:00am 22.2 22.8 17.8 76 2.8 ESE 11 22 6 12 1015.2 - 0.2
24/03:30am 22.3 22.6 17.9 76 2.8 ESE 13 22 7 12 1015.3 - 0.2
24/03:00am 22.2 23.1 17.6 75 2.9 ESE 9 15 5 8 1015.3 1013.9 0.2
24/02:30am 22.5 22.3 17.6 74 3.1 ESE 15 28 8 15 1015.5 - 0.2
24/02:00am 22.5 22.9 18.1 76 2.8 ESE 13 20 7 11 1015.8 - 0.2
24/01:30am 22.3 23.1 18.1 77 2.7 ESE 11 20 6 11 1016.3 - 0.2
24/01:00am 22.2 23.5 18.4 79 2.4 ESE 9 15 5 8 1016.6 - 0.2
24/12:30am 22.4 23.7 18.4 78 2.5 ESE 9 15 5 8 1016.7 - 0.2
24/12:00am 22.5 24.0 18.1 76 2.8 ESE 7 11 4 6 1016.7 1015.3 0.2
 
Date/Time
EST
Temp
°C
App
Temp
°C
Dew
Point
Rel
Hum
%
Delta-T
°C
Wind Press
QNH
hPa
Press
MSL
hPa
Rain
since 9 am
mm
Dir
 
Spd
km/h
Gust
km/h
Spd
kts
Gust
kts
23/11:30pm 22.2 23.9 18.4 79 2.4 SSE 7 13 4 7 1016.9 - 0.2
23/11:00pm 22.2 24.1 18.6 80 2.3 SE 6 7 3 4 1017.2 - 0.2
23/10:30pm 22.7 24.5 18.3 76 2.8 E 6 7 3 4 1017.3 - 0.2
23/10:00pm 23.2 24.3 18.1 73 3.2 E 9 15 5 8 1017.2 - 0.2
23/09:30pm 23.3 24.8 18.0 72 3.4 E 7 11 4 6 1017.1 - 0.2
23/09:00pm 23.5 24.1 17.7 70 3.7 E 11 17 6 9 1017.1 1015.7 0.2
23/08:30pm 23.5 23.9 17.3 68 3.9 E 11 17 6 9 1017.1 - 0.2
23/08:00pm 23.9 23.9 17.2 66 4.2 E 13 20 7 11 1016.8 - 0.2
23/07:30pm 24.0 24.6 17.7 68 4.0 E 11 20 6 11 1016.6 - 0.2
23/07:00pm 24.2 24.4 17.7 67 4.1 E 13 20 7 11 1016.0 - 0.2
23/06:30pm 24.5 24.9 18.2 68 4.0 E 13 20 7 11 1015.9 - 0.2
23/06:00pm 24.9 25.4 18.3 66 4.2 E 13 24 7 13 1015.6 1014.2 0.2
23/05:30pm 25.6 26.1 18.3 64 4.7 E 13 20 7 11 1015.3 - 0.2
23/05:00pm 26.2 26.2 18.1 61 5.2 E 15 22 8 12 1015.0 - 0.2
23/04:30pm 26.7 26.7 18.0 59 5.6 E 15 20 8 11 1014.6 - 0.2
23/04:00pm 27.4 26.7 17.3 54 6.4 E 17 30 9 16 1014.2 - 0.2
23/03:30pm 27.4 26.4 17.6 55 6.2 E 19 26 10 14 1014.1 - 0.2
23/03:00pm 27.3 25.9 16.9 53 6.6 ENE 20 28 11 15 1014.5 1013.0 0.2
23/02:30pm 27.3 25.7 17.5 55 6.2 E 22 32 12 17 1014.5 - 0.2
23/02:00pm 27.0 25.5 17.8 57 5.9 E 22 32 12 17 1014.7 - 0.2
23/01:30pm 27.3 26.3 18.0 56 6.0 E 20 33 11 18 1014.8 - 0.2
23/01:00pm 27.6 26.8 18.0 55 6.2 E 19 30 10 16 1015.1 - 0.2
23/12:30pm 26.9 24.6 17.7 57 5.9 E 26 39 14 21 1015.3 - 0.2
23/12:00pm 26.1 24.9 17.5 59 5.4 E 20 35 11 19 1015.5 1014.2 0.2
23/11:30am 25.3 23.9 18.0 64 4.7 E 22 35 12 19 1015.9 - 0.2
23/11:00am 24.3 23.6 18.2 68 3.9 E 19 33 10 18 1016.6 - 0.2
23/10:30am 23.7 23.6 17.9 70 3.7 E 15 26 8 14 1016.8 - 0.2
23/10:00am 22.7 22.2 18.7 78 2.6 E 19 33 10 18 1016.6 - 0.2
23/09:30am 21.9 21.5 19.3 85 1.7 E 20 39 11 21 1016.7 - 0.2
23/09:00am 21.3 21.7 19.9 92 0.9 E 17 32 9 17 1016.8 1015.5 21.6
23/08:30am 20.7 22.5 20.4 98 0.2 ESE 11 17 6 9 1017.3 - 21.4
23/08:00am 20.5 22.7 20.3 99 0.1 SSE 9 15 5 8 1017.6 - 21.0
23/07:57am 20.5 22.7 20.3 99 0.1 SSE 9 15 5 8 1017.6 - 20.8
23/07:30am 20.3 22.7 20.0 98 0.2 S 7 9 4 5 1017.7 - 19.6
23/07:27am 20.3 22.9 20.0 98 0.2 S 6 9 3 5 1017.7 - 19.2
23/07:25am 20.3 22.9 20.0 98 0.2 S 6 7 3 4 1017.7 - 19.0
23/07:00am 20.4 24.2 20.1 98 0.2 CALM 0 0 0 0 1017.7 - 17.4
23/06:48am 20.4 24.2 20.1 98 0.2 CALM 0 6 0 3 1017.6 - 16.6
23/06:30am 20.4 23.0 20.1 98 0.2 SSW 6 9 3 5 1017.3 - 15.6
23/06:00am 20.4 23.0 20.1 98 0.2 SSW 6 9 3 5 1017.0 1015.5 13.8
23/05:30am 20.4 22.7 19.9 97 0.3 SSW 7 11 4 6 1016.6 - 12.8
23/05:00am 20.5 22.9 20.0 97 0.3 S 7 11 4 6 1016.3 - 12.0
23/04:30am 20.5 22.8 19.8 96 0.5 S 7 9 4 5 1016.2 - 11.2
23/04:22am 20.5 22.8 19.8 96 0.5 S 7 11 4 6 1016.1 - 10.8
23/04:00am 20.7 23.1 19.7 94 0.6 S 6 7 3 4 1016.1 - 9.4
23/03:56am 20.8 23.3 19.8 94 0.6 S 6 9 3 5 1016.1 - 8.8
23/03:30am 20.9 23.1 19.7 93 0.8 S 7 11 4 6 1015.5 - 7.8
23/03:00am 21.0 23.3 19.8 93 0.8 SSE 7 11 4 6 1015.5 1014.1 7.4
23/02:30am 21.1 23.3 19.7 92 0.9 SSE 7 11 4 6 1015.6 - 7.0
23/02:00am 21.3 23.1 19.6 90 1.1 S 9 13 5 7 1015.4 - 6.8
23/01:30am 21.3 23.2 19.8 91 1.0 SSE 9 15 5 8 1015.5 - 6.8
23/01:00am 21.3 23.6 19.8 91 1.0 S 7 13 4 7 1015.7 - 6.8
23/12:30am 21.2 23.5 19.8 92 0.9 SE 7 11 4 6 1016.0 - 6.8
23/12:00am 21.3 23.6 19.8 91 1.0 SE 7 9 4 5 1016.2 1014.8 6.6
 
Date/Time
EST
Temp
°C
App
Temp
°C
Dew
Point
Rel
Hum
%
Delta-T
°C
Wind Press
QNH
hPa
Press
MSL
hPa
Rain
since 9 am
mm
Dir
 
Spd
km/h
Gust
km/h
Spd
kts
Gust
kts
22/11:30pm 21.4 23.9 19.9 91 1.0 ESE 6 15 3 8 1016.4 - 6.6
22/11:00pm 21.4 23.4 19.9 91 1.0 ESE 9 13 5 7 1016.5 - 6.2
22/10:30pm 21.3 23.8 19.9 92 0.9 SE 6 11 3 6 1016.6 - 6.0
22/10:00pm 21.4 23.4 20.0 92 0.9 SE 9 13 5 7 1016.6 - 5.4
22/09:30pm 21.4 23.8 20.0 92 0.9 SE 7 11 4 6 1016.7 - 5.2
22/09:00pm 21.7 23.6 19.8 89 1.2 ESE 9 15 5 8 1016.9 1015.5 4.6
22/08:30pm 22.3 23.7 19.5 84 1.8 ESE 11 19 6 10 1016.9 - 3.4
22/08:00pm 23.5 24.0 19.2 77 2.8 E 15 24 8 13 1016.6 - 3.0
22/07:30pm 23.5 24.1 19.4 78 2.7 ESE 15 24 8 13 1016.2 - 3.0
22/07:00pm 23.4 24.2 19.8 80 2.3 ESE 15 20 8 11 1016.0 - 3.0
22/06:30pm 23.6 24.5 20.1 81 2.3 ESE 15 26 8 14 1015.6 - 3.0
22/06:00pm 23.4 24.5 20.5 84 1.9 ESE 15 20 8 11 1015.6 1014.1 3.0
22/05:30pm 23.7 25.2 21.2 86 1.7 ESE 15 20 8 11 1015.4 - 3.0
22/05:00pm 23.9 27.4 22.2 90 1.1 SE 7 11 4 6 1015.2 - 3.0
22/04:30pm 23.6 26.7 22.2 92 0.9 SSE 9 15 5 8 1015.0 - 3.0
22/04:00pm 23.6 26.3 22.2 92 0.9 SSE 11 19 6 10 1014.9 - 3.0
22/03:30pm 23.9 27.0 22.2 90 1.1 SE 9 13 5 7 1015.2 - 2.4

Other Formats:

Comma delimited format used in spreadsheet applications
http://www.bom.gov.au/fwo/IDQ60801/IDQ60801.94274.axf

JavaScript Object Notation format (JSON) in row-major order
http://www.bom.gov.au/fwo/IDQ60801/IDQ60801.94274.json